createdAt,value
2022-09-27T00:02:09.481Z,73.83
2022-09-27T00:07:11.765Z,73.54
2022-09-27T00:12:13.869Z,73.77
2022-09-27T00:17:16.188Z,73.39
2022-09-27T00:22:18.416Z,74.27
2022-09-27T00:27:21.049Z,74.86
2022-09-27T00:32:23.343Z,74.65
2022-09-27T00:37:26.097Z,74.94
2022-09-27T00:42:28.220Z,74.88
2022-09-27T00:47:36.966Z,74.07
2022-09-27T00:52:43.124Z,74.30
2022-09-27T00:57:46.406Z,74.30
2022-09-27T01:02:51.903Z,74.16
2022-09-27T01:08:00.858Z,73.84
2022-09-27T01:13:17.959Z,74.35
2022-09-27T01:18:44.225Z,73.59
2022-09-27T01:23:55.803Z,73.67
2022-09-27T01:29:11.380Z,72.61
2022-09-27T01:34:31.827Z,73.31
2022-09-27T01:39:44.212Z,73.52
2022-09-27T01:45:18.029Z,74.12
2022-09-27T01:50:52.740Z,74.40
2022-09-27T01:55:57.072Z,74.61
2022-09-27T02:01:18.998Z,74.25
2022-09-27T02:06:27.735Z,75.16
2022-09-27T02:11:36.257Z,75.10
2022-09-27T02:16:55.066Z,75.33
2022-09-27T02:22:30.124Z,75.04
2022-09-27T02:27:38.890Z,75.86
2022-09-27T02:32:45.893Z,74.88
2022-09-27T02:37:48.223Z,75.60
2022-09-27T02:42:51.018Z,76.35
2022-09-27T02:48:05.173Z,76.15
2022-09-27T02:53:22.562Z,76.50
2022-09-27T02:58:33.619Z,76.41
2022-09-27T03:04:25.309Z,76.24
2022-09-27T03:09:50.438Z,75.70
2022-09-27T03:14:57.960Z,75.03
2022-09-27T03:20:22.537Z,74.32
2022-09-27T03:25:28.591Z,74.17
2022-09-27T03:30:30.895Z,74.37
2022-09-27T03:35:33.391Z,75.14
2022-09-27T03:40:36.545Z,75.20
2022-09-27T03:45:40.027Z,75.91
2022-09-27T03:50:45.093Z,75.60
2022-09-27T03:55:48.067Z,75.83
2022-09-27T04:00:50.209Z,75.42
2022-09-27T04:05:52.734Z,75.05
2022-09-27T04:10:58.535Z,74.99
2022-09-27T04:16:03.055Z,74.40
2022-09-27T04:21:29.102Z,74.71
2022-09-27T04:26:31.700Z,74.73
2022-09-27T04:31:38.071Z,74.12
2022-09-27T04:36:58.486Z,73.34
2022-09-27T04:42:12.662Z,73.81
2022-09-27T04:47:15.201Z,72.53
2022-09-27T04:52:17.980Z,71.52
2022-09-27T04:57:20.249Z,71.46
2022-09-27T05:02:22.435Z,71.06
2022-09-27T05:07:42.751Z,69.59
2022-09-27T05:12:50.953Z,68.51
2022-09-27T05:17:52.914Z,69.94
2022-09-27T05:23:13.709Z,69.23
2022-09-27T05:28:15.919Z,68.96
2022-09-27T05:33:19.107Z,68.65
2022-09-27T05:38:25.302Z,68.08
2022-09-27T05:43:36.484Z,68.15
2022-09-27T05:48:38.677Z,68.27
2022-09-27T05:53:42.570Z,66.63
2022-09-27T05:58:55.714Z,66.44
2022-09-27T06:03:58.747Z,64.75
2022-09-27T06:09:21.160Z,63.63
2022-09-27T06:14:24.266Z,63.76
2022-09-27T06:19:33.033Z,63.25
2022-09-27T06:24:35.135Z,62.25
2022-09-27T06:29:43.049Z,59.85
2022-09-27T06:34:54.169Z,59.55
2022-09-27T06:39:57.154Z,57.20
2022-09-27T06:45:17.849Z,54.99
2022-09-27T06:50:40.673Z,53.25
2022-09-27T06:55:43.772Z,51.56
2022-09-27T07:00:51.987Z,50.08
2022-09-27T07:06:19.826Z,50.45
2022-09-27T07:11:26.246Z,50.31
2022-09-27T07:16:29.188Z,50.95
2022-09-27T07:21:32.170Z,51.92
2022-09-27T07:26:34.360Z,52.51
2022-09-27T07:31:37.730Z,52.84
2022-09-27T07:36:40.485Z,53.56
2022-09-27T07:41:43.923Z,53.25
2022-09-27T07:46:47.784Z,52.03
2022-09-27T07:51:55.041Z,49.63
2022-09-27T07:57:23.737Z,46.45
2022-09-27T08:02:28.418Z,44.08
2022-09-27T08:07:33.049Z,41.45
2022-09-27T08:12:36.681Z,35.23
2022-09-27T08:17:39.098Z,31.46
2022-09-27T08:22:51.675Z,29.85
2022-09-27T08:28:07.049Z,27.06
2022-09-27T08:33:13.416Z,25.44
2022-09-27T08:38:16.261Z,22.56
2022-09-27T08:43:28.223Z,21.96
2022-09-27T08:48:31.778Z,20.03
2022-09-27T08:53:40.179Z,20.06
2022-09-27T08:58:53.745Z,18.86
2022-09-27T09:04:04.430Z,17.43
2022-09-27T09:09:29.240Z,17.74
2022-09-27T09:15:06.001Z,17.28
2022-09-27T09:20:33.051Z,20.50
2022-09-27T09:25:52.320Z,18.54
2022-09-27T09:31:32.481Z,18.57
2022-09-27T09:36:46.610Z,20.51
2022-09-27T09:42:08.478Z,23.47
2022-09-27T09:47:21.722Z,26.39
2022-09-27T09:52:27.569Z,30.08
2022-09-27T09:58:03.108Z,32.34
2022-09-27T10:03:13.500Z,29.58
2022-09-27T10:08:20.441Z,27.62
2022-09-27T10:13:26.765Z,25.71
2022-09-27T10:18:37.478Z,23.96
2022-09-27T10:24:12.259Z,25.37
2022-09-27T10:29:39.307Z,25.68
2022-09-27T10:34:56.581Z,25.32
2022-09-27T10:39:59.758Z,24.17
2022-09-27T10:45:26.021Z,26.52
2022-09-27T10:51:01.049Z,29.54
2022-09-27T10:56:30.640Z,30.84
2022-09-27T11:01:46.054Z,31.71
2022-09-27T11:07:26.590Z,33.23
2022-09-27T11:12:40.906Z,32.50
2022-09-27T11:18:10.223Z,30.92
2022-09-27T11:23:49.669Z,30.37
2022-09-27T11:29:36.262Z,32.03
2022-09-27T11:34:54.216Z,32.38
2022-09-27T11:39:56.459Z,29.74
2022-09-27T11:51:32.134Z,27.18
2022-09-27T11:56:49.001Z,24.62
2022-09-27T12:02:05.663Z,25.00
2022-09-27T12:07:32.315Z,24.37
2022-09-27T12:12:39.432Z,21.60
2022-09-27T12:17:48.532Z,22.57
2022-09-27T12:22:58.981Z,21.75
2022-09-27T12:28:51.198Z,23.04
2022-09-27T12:34:09.640Z,25.63
2022-09-27T12:39:30.222Z,28.87
2022-09-27T12:44:47.617Z,29.03
2022-09-27T12:50:24.089Z,28.83
2022-09-27T12:55:47.139Z,26.13
2022-09-27T13:01:00.930Z,25.13
2022-09-27T13:06:11.294Z,24.71
2022-09-27T13:11:22.068Z,24.61
2022-09-27T13:16:25.720Z,25.61
2022-09-27T13:21:56.469Z,26.59
2022-09-27T13:27:30.557Z,25.64
2022-09-27T13:32:37.278Z,25.37
2022-09-27T13:37:45.578Z,26.01
2022-09-27T13:43:05.540Z,27.52
2022-09-27T13:48:17.083Z,27.44
2022-09-27T13:53:38.986Z,29.12
2022-09-27T13:58:45.863Z,29.31
2022-09-27T14:04:16.700Z,29.94
2022-09-27T14:09:26.557Z,32.58
2022-09-27T14:14:42.841Z,33.29
2022-09-27T14:19:46.381Z,33.76
2022-09-27T14:24:54.768Z,34.77
2022-09-27T14:30:17.556Z,34.90
2022-09-27T14:35:46.791Z,36.46
2022-09-27T14:40:53.430Z,37.85
2022-09-27T14:46:01.458Z,39.96
2022-09-27T14:51:19.432Z,41.50
2022-09-27T14:56:26.138Z,41.86
2022-09-27T15:01:29.848Z,43.21
2022-09-27T15:06:32.568Z,44.29
2022-09-27T15:11:34.939Z,45.16
2022-09-27T15:16:37.360Z,45.85
2022-09-27T15:21:39.789Z,46.70
2022-09-27T15:26:46.239Z,47.32
2022-09-27T15:32:06.814Z,47.12
2022-09-27T15:37:24.407Z,46.63
2022-09-27T15:42:26.629Z,48.73
2022-09-27T15:47:34.862Z,49.17
2022-09-27T15:52:45.106Z,49.91
2022-09-27T15:57:53.858Z,50.49
2022-09-27T16:02:56.841Z,50.77
2022-09-27T16:07:59.481Z,51.60
2022-09-27T16:13:01.534Z,51.55
2022-09-27T16:18:03.916Z,47.34
2022-09-27T16:23:06.385Z,52.44
2022-09-27T16:28:11.585Z,53.17
2022-09-27T16:33:14.054Z,53.95
2022-09-27T16:38:17.937Z,53.79
2022-09-27T16:43:20.545Z,53.94
2022-09-27T16:48:22.635Z,54.11
2022-09-27T16:53:24.619Z,48.58
2022-09-27T16:58:29.278Z,54.46
2022-09-27T17:03:31.543Z,55.35
2022-09-27T17:08:33.755Z,55.20
2022-09-27T17:13:36.038Z,55.63
2022-09-27T17:18:39.568Z,55.84
2022-09-27T17:23:42.049Z,56.07
2022-09-27T17:28:45.214Z,56.10
2022-09-27T17:33:55.485Z,56.73
2022-09-27T17:38:59.800Z,56.74
2022-09-27T17:44:02.381Z,56.59
2022-09-27T17:49:24.545Z,56.44
2022-09-27T17:54:28.341Z,56.31
2022-09-27T17:59:30.438Z,57.08
2022-09-27T18:04:32.526Z,52.83
2022-09-27T18:09:35.030Z,56.17
2022-09-27T18:14:37.548Z,56.98
2022-09-27T18:19:39.993Z,57.29
2022-09-27T18:24:42.162Z,57.46
2022-09-27T18:29:44.467Z,57.81
2022-09-27T18:34:46.927Z,58.26
2022-09-27T18:39:49.195Z,58.63
2022-09-27T18:44:51.596Z,58.91
2022-09-27T18:49:53.811Z,58.57
2022-09-27T18:54:56.001Z,59.79
2022-09-27T18:59:58.464Z,59.65
2022-09-27T19:05:00.625Z,59.42
2022-09-27T19:10:03.108Z,58.91
2022-09-27T19:15:05.791Z,59.74
2022-09-27T19:20:08.571Z,59.92
2022-09-27T19:25:10.899Z,59.75
2022-09-27T19:30:13.995Z,60.20
2022-09-27T19:35:16.147Z,60.77
2022-09-27T19:40:18.178Z,57.61
2022-09-27T19:45:21.292Z,60.10
2022-09-27T19:50:23.864Z,60.97
2022-09-27T19:55:26.931Z,61.21
2022-09-27T20:00:30.072Z,61.33
2022-09-27T20:05:32.332Z,61.42
2022-09-27T20:10:34.438Z,61.51
2022-09-27T20:15:36.362Z,59.09
2022-09-27T20:20:38.520Z,61.11
2022-09-27T20:25:43.048Z,58.12
2022-09-27T20:30:56.695Z,60.20
2022-09-27T20:35:58.761Z,60.54
2022-09-27T20:41:00.680Z,57.97
2022-09-27T20:46:04.726Z,59.94
2022-09-27T20:51:07.369Z,60.01
2022-09-27T20:56:27.155Z,60.59
2022-09-27T21:01:30.670Z,60.03
2022-09-27T21:06:33.302Z,59.66
2022-09-27T21:11:36.114Z,59.96
2022-09-27T21:16:38.231Z,59.90
2022-09-27T21:21:40.429Z,59.96
2022-09-27T21:26:42.576Z,59.87
2022-09-27T21:31:44.527Z,58.01
2022-09-27T21:36:46.604Z,59.50
2022-09-27T21:41:48.575Z,59.67
2022-09-27T21:46:52.059Z,59.79
2022-09-27T21:51:54.099Z,59.74
2022-09-27T21:56:56.071Z,61.03
2022-09-27T22:01:58.108Z,60.96
2022-09-27T22:06:59.992Z,58.37
2022-09-27T22:12:02.129Z,61.53
2022-09-27T22:17:04.135Z,56.77
2022-09-27T22:22:06.127Z,60.81
2022-09-27T22:27:08.095Z,57.99
2022-09-27T22:32:10.203Z,61.46
2022-09-27T22:37:13.192Z,58.70
2022-09-27T22:42:15.297Z,61.95
2022-09-27T22:47:17.460Z,59.26
2022-09-27T22:52:19.557Z,61.68
2022-09-27T22:57:21.484Z,59.36
2022-09-27T23:02:23.598Z,61.89
2022-09-27T23:07:25.627Z,59.11
2022-09-27T23:12:28.117Z,61.98
2022-09-27T23:17:30.192Z,61.86
2022-09-27T23:22:33.365Z,61.92
2022-09-27T23:27:47.768Z,61.86
2022-09-27T23:32:54.373Z,62.22
2022-09-27T23:37:57.989Z,62.34
2022-09-27T23:43:01.314Z,61.81
2022-09-27T23:48:04.242Z,61.92
2022-09-27T23:53:06.270Z,61.98
2022-09-27T23:58:08.206Z,60.20
